sensor_id;sensor_type;location;lat;lon;timestamp;P1;durP1;ratioP1;P2;durP2;ratioP2
53263;SDS011;39153;52.680;6.172;2024-03-22T00:01:40;53.53;;;32.97;;
53263;SDS011;39153;52.680;6.172;2024-03-22T00:04:05;56.30;;;34.13;;
53263;SDS011;39153;52.680;6.172;2024-03-22T00:06:31;56.80;;;34.63;;
53263;SDS011;39153;52.680;6.172;2024-03-22T00:08:57;66.32;;;36.22;;
53263;SDS011;39153;52.680;6.172;2024-03-22T00:11:22;63.05;;;36.22;;
53263;SDS011;39153;52.680;6.172;2024-03-22T00:13:48;65.80;;;36.53;;
53263;SDS011;39153;52.680;6.172;2024-03-22T00:16:14;58.25;;;45.60;;
53263;SDS011;39153;52.680;6.172;2024-03-22T00:18:39;58.53;;;45.67;;
53263;SDS011;39153;52.680;6.172;2024-03-22T00:21:05;63.45;;;33.97;;
53263;SDS011;39153;52.680;6.172;2024-03-22T00:23:31;66.90;;;35.45;;
53263;SDS011;39153;52.680;6.172;2024-03-22T00:25:56;61.13;;;46.38;;
53263;SDS011;39153;52.680;6.172;2024-03-22T00:28:22;64.32;;;35.35;;
53263;SDS011;39153;52.680;6.172;2024-03-22T00:30:48;63.47;;;35.72;;
53263;SDS011;39153;52.680;6.172;2024-03-22T00:33:13;64.00;;;47.72;;
53263;SDS011;39153;52.680;6.172;2024-03-22T00:35:39;67.15;;;36.63;;
53263;SDS011;39153;52.680;6.172;2024-03-22T00:38:05;67.88;;;38.85;;
53263;SDS011;39153;52.680;6.172;2024-03-22T00:40:30;68.88;;;38.13;;
53263;SDS011;39153;52.680;6.172;2024-03-22T00:42:56;69.30;;;39.88;;
53263;SDS011;39153;52.680;6.172;2024-03-22T00:45:22;68.43;;;38.78;;
53263;SDS011;39153;52.680;6.172;2024-03-22T00:47:47;66.28;;;49.20;;
53263;SDS011;39153;52.680;6.172;2024-03-22T00:50:13;67.30;;;49.60;;
53263;SDS011;39153;52.680;6.172;2024-03-22T00:52:39;68.00;;;37.70;;
53263;SDS011;39153;52.680;6.172;2024-03-22T00:55:04;73.50;;;40.13;;
53263;SDS011;39153;52.680;6.172;2024-03-22T00:57:30;73.20;;;40.85;;
53263;SDS011;39153;52.680;6.172;2024-03-22T00:59:56;75.70;;;41.72;;
53263;SDS011;39153;52.680;6.172;2024-03-22T01:02:22;80.28;;;42.17;;
53263;SDS011;39153;52.680;6.172;2024-03-22T01:04:48;72.18;;;51.90;;
53263;SDS011;39153;52.680;6.172;2024-03-22T01:07:13;72.30;;;38.80;;
53263;SDS011;39153;52.680;6.172;2024-03-22T01:09:39;75.28;;;41.75;;
53263;SDS011;39153;52.680;6.172;2024-03-22T01:12:05;74.60;;;41.78;;
53263;SDS011;39153;52.680;6.172;2024-03-22T01:14:31;80.43;;;42.95;;
53263;SDS011;39153;52.680;6.172;2024-03-22T01:16:56;73.47;;;44.28;;
53263;SDS011;39153;52.680;6.172;2024-03-22T01:19:22;72.95;;;51.45;;
53263;SDS011;39153;52.680;6.172;2024-03-22T01:21:48;80.80;;;42.65;;
53263;SDS011;39153;52.680;6.172;2024-03-22T01:24:14;77.18;;;42.88;;
53263;SDS011;39153;52.680;6.172;2024-03-22T01:26:40;77.15;;;43.03;;
53263;SDS011;39153;52.680;6.172;2024-03-22T01:29:06;79.45;;;53.85;;
53263;SDS011;39153;52.680;6.172;2024-03-22T01:31:32;79.82;;;41.58;;
53263;SDS011;39153;52.680;6.172;2024-03-22T01:33:57;76.88;;;42.40;;
53263;SDS011;39153;52.680;6.172;2024-03-22T01:36:23;76.80;;;52.65;;
53263;SDS011;39153;52.680;6.172;2024-03-22T01:38:48;83.22;;;42.92;;
53263;SDS011;39153;52.680;6.172;2024-03-22T01:41:14;75.15;;;41.10;;
53263;SDS011;39153;52.680;6.172;2024-03-22T01:43:40;84.85;;;45.33;;
53263;SDS011;39153;52.680;6.172;2024-03-22T01:46:05;84.40;;;44.22;;
53263;SDS011;39153;52.680;6.172;2024-03-22T01:48:33;84.82;;;44.30;;
53263;SDS011;39153;52.680;6.172;2024-03-22T01:50:59;81.13;;;44.97;;
53263;SDS011;39153;52.680;6.172;2024-03-22T01:53:26;80.50;;;44.35;;
53263;SDS011;39153;52.680;6.172;2024-03-22T01:55:51;83.88;;;45.92;;
53263;SDS011;39153;52.680;6.172;2024-03-22T01:58:17;83.05;;;44.20;;
53263;SDS011;39153;52.680;6.172;2024-03-22T02:00:43;76.35;;;53.92;;
53263;SDS011;39153;52.680;6.172;2024-03-22T02:03:09;83.50;;;44.05;;
53263;SDS011;39153;52.680;6.172;2024-03-22T02:05:35;76.97;;;42.13;;
53263;SDS011;39153;52.680;6.172;2024-03-22T02:08:00;84.63;;;44.08;;
53263;SDS011;39153;52.680;6.172;2024-03-22T02:10:26;85.85;;;46.45;;
53263;SDS011;39153;52.680;6.172;2024-03-22T02:12:52;86.30;;;44.75;;
53263;SDS011;39153;52.680;6.172;2024-03-22T02:15:17;88.53;;;47.83;;
53263;SDS011;39153;52.680;6.172;2024-03-22T02:17:43;82.25;;;54.60;;
53263;SDS011;39153;52.680;6.172;2024-03-22T02:20:09;82.70;;;43.20;;
53263;SDS011;39153;52.680;6.172;2024-03-22T02:22:37;89.32;;;44.83;;
53263;SDS011;39153;52.680;6.172;2024-03-22T02:25:03;88.50;;;46.90;;
53263;SDS011;39153;52.680;6.172;2024-03-22T02:27:29;89.07;;;46.75;;
53263;SDS011;39153;52.680;6.172;2024-03-22T02:29:55;90.38;;;45.72;;
53263;SDS011;39153;52.680;6.172;2024-03-22T02:32:21;87.47;;;47.08;;
53263;SDS011;39153;52.680;6.172;2024-03-22T02:34:47;91.53;;;48.13;;
53263;SDS011;39153;52.680;6.172;2024-03-22T02:37:12;95.18;;;47.35;;
53263;SDS011;39153;52.680;6.172;2024-03-22T02:39:38;88.40;;;46.78;;
53263;SDS011;39153;52.680;6.172;2024-03-22T02:42:04;84.70;;;45.97;;
53263;SDS011;39153;52.680;6.172;2024-03-22T02:44:29;88.43;;;55.08;;
53263;SDS011;39153;52.680;6.172;2024-03-22T02:46:55;87.78;;;55.90;;
53263;SDS011;39153;52.680;6.172;2024-03-22T02:49:21;89.20;;;56.80;;
53263;SDS011;39153;52.680;6.172;2024-03-22T02:51:46;90.68;;;56.80;;
53263;SDS011;39153;52.680;6.172;2024-03-22T02:54:12;89.95;;;44.58;;
53263;SDS011;39153;52.680;6.172;2024-03-22T02:56:38;91.78;;;58.80;;
53263;SDS011;39153;52.680;6.172;2024-03-22T02:59:03;89.78;;;45.88;;
53263;SDS011;39153;52.680;6.172;2024-03-22T03:01:29;94.90;;;48.33;;
53263;SDS011;39153;52.680;6.172;2024-03-22T03:03:55;95.13;;;48.70;;
53263;SDS011;39153;52.680;6.172;2024-03-22T03:06:20;95.70;;;48.10;;
53263;SDS011;39153;52.680;6.172;2024-03-22T03:08:46;92.93;;;47.20;;
53263;SDS011;39153;52.680;6.172;2024-03-22T03:11:12;88.32;;;56.63;;
53263;SDS011;39153;52.680;6.172;2024-03-22T03:13:39;88.95;;;45.58;;
53263;SDS011;39153;52.680;6.172;2024-03-22T03:16:05;88.57;;;56.83;;
53263;SDS011;39153;52.680;6.172;2024-03-22T03:18:30;85.82;;;44.67;;
53263;SDS011;39153;52.680;6.172;2024-03-22T03:20:56;86.55;;;55.08;;
53263;SDS011;39153;52.680;6.172;2024-03-22T03:23:22;89.53;;;44.15;;
53263;SDS011;39153;52.680;6.172;2024-03-22T03:25:47;91.35;;;46.17;;
53263;SDS011;39153;52.680;6.172;2024-03-22T03:28:13;92.47;;;46.80;;
53263;SDS011;39153;52.680;6.172;2024-03-22T03:30:39;86.57;;;54.75;;
53263;SDS011;39153;52.680;6.172;2024-03-22T03:33:05;92.68;;;43.88;;
53263;SDS011;39153;52.680;6.172;2024-03-22T03:35:32;89.03;;;44.63;;
53263;SDS011;39153;52.680;6.172;2024-03-22T03:37:57;92.20;;;47.38;;
53263;SDS011;39153;52.680;6.172;2024-03-22T03:40:23;98.00;;;47.05;;
53263;SDS011;39153;52.680;6.172;2024-03-22T03:42:52;96.95;;;47.17;;
53263;SDS011;39153;52.680;6.172;2024-03-22T03:45:18;94.97;;;46.97;;
53263;SDS011;39153;52.680;6.172;2024-03-22T03:47:44;87.65;;;45.00;;
53263;SDS011;39153;52.680;6.172;2024-03-22T03:50:09;100.78;;;48.97;;
53263;SDS011;39153;52.680;6.172;2024-03-22T03:52:35;88.25;;;47.15;;
53263;SDS011;39153;52.680;6.172;2024-03-22T03:55:01;92.25;;;46.50;;
53263;SDS011;39153;52.680;6.172;2024-03-22T03:57:26;99.65;;;48.28;;
53263;SDS011;39153;52.680;6.172;2024-03-22T03:59:52;94.25;;;55.65;;
53263;SDS011;39153;52.680;6.172;2024-03-22T04:02:17;95.72;;;45.03;;
53263;SDS011;39153;52.680;6.172;2024-03-22T04:04:43;89.90;;;44.80;;
53263;SDS011;39153;52.680;6.172;2024-03-22T04:07:09;88.25;;;53.92;;
53263;SDS011;39153;52.680;6.172;2024-03-22T04:09:34;90.55;;;42.03;;
53263;SDS011;39153;52.680;6.172;2024-03-22T04:12:00;90.68;;;45.42;;
53263;SDS011;39153;52.680;6.172;2024-03-22T04:14:26;95.55;;;47.50;;
53263;SDS011;39153;52.680;6.172;2024-03-22T04:16:52;94.15;;;46.22;;
53263;SDS011;39153;52.680;6.172;2024-03-22T04:19:21;93.75;;;45.72;;
53263;SDS011;39153;52.680;6.172;2024-03-22T04:21:47;93.13;;;44.42;;
53263;SDS011;39153;52.680;6.172;2024-03-22T04:24:14;94.88;;;47.22;;
53263;SDS011;39153;52.680;6.172;2024-03-22T04:26:39;90.25;;;44.42;;
53263;SDS011;39153;52.680;6.172;2024-03-22T04:29:05;92.25;;;45.30;;
53263;SDS011;39153;52.680;6.172;2024-03-22T04:31:30;86.32;;;50.90;;
53263;SDS011;39153;52.680;6.172;2024-03-22T04:33:56;90.40;;;42.97;;
53263;SDS011;39153;52.680;6.172;2024-03-22T04:36:22;83.88;;;48.97;;
53263;SDS011;39153;52.680;6.172;2024-03-22T04:38:48;85.38;;;40.55;;
53263;SDS011;39153;52.680;6.172;2024-03-22T04:41:13;81.60;;;37.40;;
53263;SDS011;39153;52.680;6.172;2024-03-22T04:43:39;92.28;;;42.75;;
53263;SDS011;39153;52.680;6.172;2024-03-22T04:46:05;74.60;;;47.17;;
53263;SDS011;39153;52.680;6.172;2024-03-22T04:48:31;82.30;;;39.13;;
53263;SDS011;39153;52.680;6.172;2024-03-22T04:50:56;78.57;;;48.50;;
53263;SDS011;39153;52.680;6.172;2024-03-22T04:53:22;86.68;;;39.30;;
53263;SDS011;39153;52.680;6.172;2024-03-22T04:55:48;78.63;;;39.28;;
53263;SDS011;39153;52.680;6.172;2024-03-22T04:58:15;79.75;;;39.47;;
53263;SDS011;39153;52.680;6.172;2024-03-22T05:00:45;75.68;;;45.72;;
53263;SDS011;39153;52.680;6.172;2024-03-22T05:03:11;72.43;;;35.72;;
53263;SDS011;39153;52.680;6.172;2024-03-22T05:05:38;75.78;;;46.10;;
53263;SDS011;39153;52.680;6.172;2024-03-22T05:08:04;70.10;;;35.53;;
53263;SDS011;39153;52.680;6.172;2024-03-22T05:10:31;83.40;;;38.28;;
53263;SDS011;39153;52.680;6.172;2024-03-22T05:12:57;72.85;;;46.05;;
53263;SDS011;39153;52.680;6.172;2024-03-22T05:15:23;80.47;;;37.55;;
53263;SDS011;39153;52.680;6.172;2024-03-22T05:17:50;73.40;;;37.10;;
53263;SDS011;39153;52.680;6.172;2024-03-22T05:20:16;69.85;;;45.05;;
53263;SDS011;39153;52.680;6.172;2024-03-22T05:22:42;72.10;;;35.88;;
53263;SDS011;39153;52.680;6.172;2024-03-22T05:25:08;69.45;;;35.22;;
53263;SDS011;39153;52.680;6.172;2024-03-22T05:27:35;72.38;;;35.75;;
53263;SDS011;39153;52.680;6.172;2024-03-22T05:30:01;66.47;;;44.53;;
53263;SDS011;39153;52.680;6.172;2024-03-22T05:32:29;63.35;;;33.65;;
53263;SDS011;39153;52.680;6.172;2024-03-22T05:34:55;73.05;;;37.28;;
53263;SDS011;39153;52.680;6.172;2024-03-22T05:37:20;72.07;;;36.08;;
53263;SDS011;39153;52.680;6.172;2024-03-22T05:39:46;78.65;;;37.38;;
53263;SDS011;39153;52.680;6.172;2024-03-22T05:42:12;72.28;;;34.40;;
53263;SDS011;39153;52.680;6.172;2024-03-22T05:44:38;71.20;;;34.38;;
53263;SDS011;39153;52.680;6.172;2024-03-22T05:47:04;70.70;;;33.83;;
53263;SDS011;39153;52.680;6.172;2024-03-22T05:49:30;70.55;;;33.85;;
53263;SDS011;39153;52.680;6.172;2024-03-22T05:51:56;68.50;;;32.42;;
53263;SDS011;39153;52.680;6.172;2024-03-22T05:54:21;66.38;;;31.52;;
53263;SDS011;39153;52.680;6.172;2024-03-22T05:56:47;66.30;;;41.35;;
53263;SDS011;39153;52.680;6.172;2024-03-22T05:59:13;72.13;;;44.20;;
53263;SDS011;39153;52.680;6.172;2024-03-22T06:01:38;66.82;;;43.63;;
53263;SDS011;39153;52.680;6.172;2024-03-22T06:04:04;69.85;;;30.90;;
53263;SDS011;39153;52.680;6.172;2024-03-22T06:06:31;67.28;;;33.10;;
53263;SDS011;39153;52.680;6.172;2024-03-22T06:08:59;72.50;;;31.98;;
53263;SDS011;39153;52.680;6.172;2024-03-22T06:11:28;69.32;;;32.25;;
53263;SDS011;39153;52.680;6.172;2024-03-22T06:13:55;71.90;;;33.42;;
53263;SDS011;39153;52.680;6.172;2024-03-22T06:16:20;66.43;;;32.50;;
53263;SDS011;39153;52.680;6.172;2024-03-22T06:18:46;57.25;;;39.50;;
53263;SDS011;39153;52.680;6.172;2024-03-22T06:21:12;63.78;;;29.75;;
53263;SDS011;39153;52.680;6.172;2024-03-22T06:23:39;65.47;;;31.13;;
53263;SDS011;39153;52.680;6.172;2024-03-22T06:26:06;63.33;;;30.90;;
53263;SDS011;39153;52.680;6.172;2024-03-22T06:28:32;57.22;;;36.65;;
53263;SDS011;39153;52.680;6.172;2024-03-22T06:30:58;56.30;;;28.40;;
53263;SDS011;39153;52.680;6.172;2024-03-22T06:33:23;56.72;;;28.98;;
53263;SDS011;39153;52.680;6.172;2024-03-22T06:35:49;49.80;;;33.92;;
53263;SDS011;39153;52.680;6.172;2024-03-22T06:38:15;61.35;;;30.38;;
53263;SDS011;39153;52.680;6.172;2024-03-22T06:40:40;65.55;;;31.45;;
53263;SDS011;39153;52.680;6.172;2024-03-22T06:43:06;65.65;;;40.72;;
53263;SDS011;39153;52.680;6.172;2024-03-22T06:45:32;66.38;;;41.92;;
53263;SDS011;39153;52.680;6.172;2024-03-22T06:47:57;75.50;;;32.92;;
53263;SDS011;39153;52.680;6.172;2024-03-22T06:50:23;55.83;;;28.00;;
53263;SDS011;39153;52.680;6.172;2024-03-22T06:52:52;59.03;;;35.72;;
53263;SDS011;39153;52.680;6.172;2024-03-22T06:55:19;48.72;;;31.45;;
53263;SDS011;39153;52.680;6.172;2024-03-22T06:57:45;41.83;;;23.80;;
53263;SDS011;39153;52.680;6.172;2024-03-22T07:00:12;46.95;;;29.50;;
53263;SDS011;39153;52.680;6.172;2024-03-22T07:02:38;50.80;;;24.38;;
53263;SDS011;39153;52.680;6.172;2024-03-22T07:05:05;49.55;;;29.50;;
53263;SDS011;39153;52.680;6.172;2024-03-22T07:07:37;44.50;;;20.73;;
53263;SDS011;39153;52.680;6.172;2024-03-22T07:10:04;49.85;;;23.02;;
53263;SDS011;39153;52.680;6.172;2024-03-22T07:12:33;46.45;;;22.50;;
53263;SDS011;39153;52.680;6.172;2024-03-22T07:15:02;48.47;;;23.45;;
53263;SDS011;39153;52.680;6.172;2024-03-22T07:17:29;49.13;;;21.50;;
53263;SDS011;39153;52.680;6.172;2024-03-22T07:19:55;44.15;;;25.15;;
53263;SDS011;39153;52.680;6.172;2024-03-22T07:22:22;44.30;;;20.52;;
53263;SDS011;39153;52.680;6.172;2024-03-22T07:24:48;40.75;;;20.02;;
53263;SDS011;39153;52.680;6.172;2024-03-22T07:27:14;44.15;;;21.05;;
53263;SDS011;39153;52.680;6.172;2024-03-22T07:29:43;39.47;;;19.27;;
53263;SDS011;39153;52.680;6.172;2024-03-22T07:32:09;39.80;;;23.38;;
53263;SDS011;39153;52.680;6.172;2024-03-22T07:34:35;39.45;;;23.38;;
53263;SDS011;39153;52.680;6.172;2024-03-22T07:37:01;43.35;;;19.50;;
53263;SDS011;39153;52.680;6.172;2024-03-22T07:39:27;40.47;;;24.42;;
53263;SDS011;39153;52.680;6.172;2024-03-22T07:41:52;34.72;;;17.85;;
53263;SDS011;39153;52.680;6.172;2024-03-22T07:44:18;39.58;;;17.88;;
53263;SDS011;39153;52.680;6.172;2024-03-22T07:46:44;38.13;;;17.70;;
53263;SDS011;39153;52.680;6.172;2024-03-22T07:49:13;39.30;;;21.67;;
53263;SDS011;39153;52.680;6.172;2024-03-22T07:51:39;30.70;;;20.20;;
53263;SDS011;39153;52.680;6.172;2024-03-22T07:54:04;38.45;;;17.23;;
53263;SDS011;39153;52.680;6.172;2024-03-22T07:56:30;34.35;;;15.85;;
53263;SDS011;39153;52.680;6.172;2024-03-22T07:58:57;36.38;;;17.85;;
53263;SDS011;39153;52.680;6.172;2024-03-22T08:01:23;34.92;;;17.20;;
53263;SDS011;39153;52.680;6.172;2024-03-22T08:03:49;37.78;;;18.20;;
53263;SDS011;39153;52.680;6.172;2024-03-22T08:06:16;38.72;;;17.27;;
53263;SDS011;39153;52.680;6.172;2024-03-22T08:08:41;43.92;;;22.98;;
53263;SDS011;39153;52.680;6.172;2024-03-22T08:11:07;46.50;;;27.15;;
53263;SDS011;39153;52.680;6.172;2024-03-22T08:13:34;57.58;;;30.00;;
53263;SDS011;39153;52.680;6.172;2024-03-22T08:16:00;58.72;;;29.00;;
53263;SDS011;39153;52.680;6.172;2024-03-22T08:18:26;48.53;;;23.95;;
53263;SDS011;39153;52.680;6.172;2024-03-22T08:20:51;45.28;;;20.83;;
53263;SDS011;39153;52.680;6.172;2024-03-22T08:23:17;40.03;;;23.60;;
53263;SDS011;39153;52.680;6.172;2024-03-22T08:25:45;32.10;;;16.77;;
53263;SDS011;39153;52.680;6.172;2024-03-22T08:28:11;31.13;;;16.70;;
53263;SDS011;39153;52.680;6.172;2024-03-22T08:30:38;35.85;;;18.17;;
53263;SDS011;39153;52.680;6.172;2024-03-22T08:33:05;37.17;;;19.52;;
53263;SDS011;39153;52.680;6.172;2024-03-22T08:35:30;38.58;;;15.70;;
53263;SDS011;39153;52.680;6.172;2024-03-22T08:37:56;38.35;;;16.92;;
53263;SDS011;39153;52.680;6.172;2024-03-22T08:40:22;33.85;;;17.55;;
53263;SDS011;39153;52.680;6.172;2024-03-22T08:42:48;41.38;;;16.77;;
53263;SDS011;39153;52.680;6.172;2024-03-22T08:45:14;37.78;;;20.80;;
53263;SDS011;39153;52.680;6.172;2024-03-22T08:47:41;36.28;;;16.25;;
53263;SDS011;39153;52.680;6.172;2024-03-22T08:50:08;37.22;;;16.95;;
53263;SDS011;39153;52.680;6.172;2024-03-22T08:52:34;37.97;;;17.73;;
53263;SDS011;39153;52.680;6.172;2024-03-22T08:55:00;47.70;;;18.50;;
53263;SDS011;39153;52.680;6.172;2024-03-22T08:57:26;42.47;;;24.25;;
53263;SDS011;39153;52.680;6.172;2024-03-22T08:59:52;48.10;;;19.30;;
53263;SDS011;39153;52.680;6.172;2024-03-22T09:02:18;42.00;;;20.52;;
53263;SDS011;39153;52.680;6.172;2024-03-22T09:04:43;46.15;;;21.05;;
53263;SDS011;39153;52.680;6.172;2024-03-22T09:07:09;51.88;;;22.80;;
53263;SDS011;39153;52.680;6.172;2024-03-22T09:09:34;48.60;;;28.20;;
53263;SDS011;39153;52.680;6.172;2024-03-22T09:12:00;52.50;;;29.67;;
53263;SDS011;39153;52.680;6.172;2024-03-22T09:14:26;51.13;;;28.35;;
53263;SDS011;39153;52.680;6.172;2024-03-22T09:16:51;59.95;;;21.35;;
53263;SDS011;39153;52.680;6.172;2024-03-22T09:19:17;49.50;;;29.38;;
53263;SDS011;39153;52.680;6.172;2024-03-22T09:21:43;56.78;;;22.42;;
53263;SDS011;39153;52.680;6.172;2024-03-22T09:24:09;43.85;;;21.90;;
53263;SDS011;39153;52.680;6.172;2024-03-22T09:26:34;43.85;;;22.30;;
53263;SDS011;39153;52.680;6.172;2024-03-22T09:29:00;51.50;;;25.13;;
53263;SDS011;39153;52.680;6.172;2024-03-22T09:31:26;52.63;;;32.30;;
53263;SDS011;39153;52.680;6.172;2024-03-22T09:33:52;50.15;;;30.88;;
53263;SDS011;39153;52.680;6.172;2024-03-22T09:36:18;45.90;;;21.77;;
53263;SDS011;39153;52.680;6.172;2024-03-22T09:38:43;46.70;;;22.55;;
53263;SDS011;39153;52.680;6.172;2024-03-22T09:41:09;47.58;;;23.65;;
53263;SDS011;39153;52.680;6.172;2024-03-22T09:43:35;52.53;;;23.55;;
53263;SDS011;39153;52.680;6.172;2024-03-22T09:46:03;48.65;;;24.33;;
53263;SDS011;39153;52.680;6.172;2024-03-22T09:48:30;48.78;;;31.13;;
53263;SDS011;39153;52.680;6.172;2024-03-22T09:50:58;46.13;;;22.90;;
53263;SDS011;39153;52.680;6.172;2024-03-22T09:53:24;48.85;;;29.75;;
53263;SDS011;39153;52.680;6.172;2024-03-22T09:55:52;42.63;;;28.63;;
53263;SDS011;39153;52.680;6.172;2024-03-22T09:58:22;40.15;;;20.55;;
53263;SDS011;39153;52.680;6.172;2024-03-22T10:00:48;39.00;;;20.98;;
53263;SDS011;39153;52.680;6.172;2024-03-22T10:03:14;45.10;;;29.02;;
53263;SDS011;39153;52.680;6.172;2024-03-22T10:05:40;46.15;;;29.63;;
53263;SDS011;39153;52.680;6.172;2024-03-22T10:08:06;38.72;;;20.17;;
53263;SDS011;39153;52.680;6.172;2024-03-22T10:10:32;48.80;;;22.60;;
53263;SDS011;39153;52.680;6.172;2024-03-22T10:13:02;38.33;;;20.80;;
53263;SDS011;39153;52.680;6.172;2024-03-22T10:15:29;40.42;;;20.77;;
53263;SDS011;39153;52.680;6.172;2024-03-22T10:17:56;43.53;;;22.52;;
53263;SDS011;39153;52.680;6.172;2024-03-22T10:20:22;42.53;;;20.50;;
53263;SDS011;39153;52.680;6.172;2024-03-22T10:22:48;31.02;;;18.92;;
53263;SDS011;39153;52.680;6.172;2024-03-22T10:25:20;35.22;;;23.63;;
53263;SDS011;39153;52.680;6.172;2024-03-22T10:27:47;34.35;;;19.17;;
53263;SDS011;39153;52.680;6.172;2024-03-22T10:30:13;34.55;;;24.63;;
53263;SDS011;39153;52.680;6.172;2024-03-22T10:32:42;36.53;;;19.67;;
53263;SDS011;39153;52.680;6.172;2024-03-22T10:35:07;37.05;;;18.42;;
53263;SDS011;39153;52.680;6.172;2024-03-22T10:37:38;31.83;;;18.52;;
53263;SDS011;39153;52.680;6.172;2024-03-22T10:40:04;28.75;;;16.70;;
53263;SDS011;39153;52.680;6.172;2024-03-22T10:45:06;25.83;;;15.98;;
53263;SDS011;39153;52.680;6.172;2024-03-22T10:47:34;28.85;;;17.35;;
53263;SDS011;39153;52.680;6.172;2024-03-22T10:50:08;28.25;;;16.38;;
53263;SDS011;39153;52.680;6.172;2024-03-22T10:52:40;27.95;;;21.48;;
53263;SDS011;39153;52.680;6.172;2024-03-22T10:55:32;26.85;;;16.30;;
53263;SDS011;39153;52.680;6.172;2024-03-22T10:57:58;30.90;;;22.45;;
53263;SDS011;39153;52.680;6.172;2024-03-22T11:00:27;29.02;;;16.83;;
53263;SDS011;39153;52.680;6.172;2024-03-22T11:02:57;26.30;;;20.45;;
53263;SDS011;39153;52.680;6.172;2024-03-22T11:05:23;25.80;;;16.33;;
53263;SDS011;39153;52.680;6.172;2024-03-22T11:08:03;29.35;;;21.75;;
53263;SDS011;39153;52.680;6.172;2024-03-22T11:10:30;25.23;;;14.77;;
53263;SDS011;39153;52.680;6.172;2024-03-22T11:13:01;26.05;;;14.95;;
53263;SDS011;39153;52.680;6.172;2024-03-22T11:15:30;25.50;;;15.88;;
53263;SDS011;39153;52.680;6.172;2024-03-22T11:17:57;24.80;;;19.45;;
53263;SDS011;39153;52.680;6.172;2024-03-22T11:20:23;25.95;;;15.57;;
53263;SDS011;39153;52.680;6.172;2024-03-22T11:22:49;27.27;;;21.00;;
53263;SDS011;39153;52.680;6.172;2024-03-22T11:25:16;25.25;;;15.00;;
53263;SDS011;39153;52.680;6.172;2024-03-22T11:27:45;26.60;;;16.17;;
53263;SDS011;39153;52.680;6.172;2024-03-22T11:30:11;26.98;;;15.38;;
53263;SDS011;39153;52.680;6.172;2024-03-22T11:32:38;25.02;;;14.80;;
53263;SDS011;39153;52.680;6.172;2024-03-22T11:35:09;24.25;;;17.02;;
53263;SDS011;39153;52.680;6.172;2024-03-22T11:37:36;21.90;;;13.65;;
53263;SDS011;39153;52.680;6.172;2024-03-22T11:40:06;24.75;;;18.10;;
53263;SDS011;39153;52.680;6.172;2024-03-22T11:42:36;23.55;;;13.90;;
53263;SDS011;39153;52.680;6.172;2024-03-22T11:45:03;25.42;;;13.73;;
53263;SDS011;39153;52.680;6.172;2024-03-22T11:47:30;20.70;;;12.90;;
53263;SDS011;39153;52.680;6.172;2024-03-22T11:49:55;21.55;;;13.10;;
53263;SDS011;39153;52.680;6.172;2024-03-22T11:52:24;19.80;;;13.25;;
53263;SDS011;39153;52.680;6.172;2024-03-22T11:54:51;19.65;;;12.18;;
53263;SDS011;39153;52.680;6.172;2024-03-22T11:57:18;17.65;;;14.02;;
53263;SDS011;39153;52.680;6.172;2024-03-22T11:59:44;16.95;;;10.93;;
53263;SDS011;39153;52.680;6.172;2024-03-22T12:02:09;17.20;;;10.27;;
53263;SDS011;39153;52.680;6.172;2024-03-22T12:04:35;15.05;;;9.70;;
53263;SDS011;39153;52.680;6.172;2024-03-22T12:07:01;13.35;;;10.70;;
53263;SDS011;39153;52.680;6.172;2024-03-22T12:09:27;11.75;;;6.93;;
53263;SDS011;39153;52.680;6.172;2024-03-22T12:11:55;11.45;;;7.32;;
53263;SDS011;39153;52.680;6.172;2024-03-22T12:14:20;10.30;;;7.20;;
53263;SDS011;39153;52.680;6.172;2024-03-22T12:16:46;12.23;;;7.25;;
53263;SDS011;39153;52.680;6.172;2024-03-22T12:19:12;10.57;;;6.47;;
53263;SDS011;39153;52.680;6.172;2024-03-22T12:21:37;11.77;;;6.50;;
53263;SDS011;39153;52.680;6.172;2024-03-22T12:24:03;9.63;;;5.43;;
53263;SDS011;39153;52.680;6.172;2024-03-22T12:26:29;9.50;;;5.70;;
53263;SDS011;39153;52.680;6.172;2024-03-22T12:28:57;9.10;;;7.30;;
53263;SDS011;39153;52.680;6.172;2024-03-22T12:31:23;9.38;;;5.47;;
53263;SDS011;39153;52.680;6.172;2024-03-22T12:33:48;7.90;;;4.63;;
53263;SDS011;39153;52.680;6.172;2024-03-22T12:36:14;8.57;;;6.68;;
53263;SDS011;39153;52.680;6.172;2024-03-22T12:38:39;9.80;;;5.13;;
53263;SDS011;39153;52.680;6.172;2024-03-22T12:41:05;8.30;;;5.20;;
53263;SDS011;39153;52.680;6.172;2024-03-22T12:43:32;10.73;;;6.90;;
53263;SDS011;39153;52.680;6.172;2024-03-22T12:45:58;8.63;;;4.50;;
53263;SDS011;39153;52.680;6.172;2024-03-22T12:48:23;9.05;;;6.63;;
53263;SDS011;39153;52.680;6.172;2024-03-22T12:50:49;10.55;;;4.40;;
53263;SDS011;39153;52.680;6.172;2024-03-22T12:53:15;7.43;;;4.18;;
53263;SDS011;39153;52.680;6.172;2024-03-22T12:55:40;7.47;;;4.35;;
53263;SDS011;39153;52.680;6.172;2024-03-22T12:58:06;11.20;;;4.47;;
53263;SDS011;39153;52.680;6.172;2024-03-22T13:00:31;8.02;;;5.32;;
53263;SDS011;39153;52.680;6.172;2024-03-22T13:02:58;9.27;;;4.00;;
53263;SDS011;39153;52.680;6.172;2024-03-22T13:05:25;11.75;;;4.60;;
53263;SDS011;39153;52.680;6.172;2024-03-22T13:07:51;10.48;;;5.70;;
53263;SDS011;39153;52.680;6.172;2024-03-22T13:10:17;15.95;;;4.68;;
53263;SDS011;39153;52.680;6.172;2024-03-22T13:12:43;13.05;;;4.60;;
53263;SDS011;39153;52.680;6.172;2024-03-22T13:15:09;19.70;;;6.45;;
53263;SDS011;39153;52.680;6.172;2024-03-22T13:17:34;14.35;;;4.88;;
53263;SDS011;39153;52.680;6.172;2024-03-22T13:20:00;19.35;;;5.60;;
53263;SDS011;39153;52.680;6.172;2024-03-22T13:22:26;14.75;;;5.50;;
53263;SDS011;39153;52.680;6.172;2024-03-22T13:24:51;18.25;;;6.47;;
53263;SDS011;39153;52.680;6.172;2024-03-22T13:27:18;20.42;;;7.30;;
53263;SDS011;39153;52.680;6.172;2024-03-22T13:29:47;19.13;;;8.13;;
53263;SDS011;39153;52.680;6.172;2024-03-22T13:32:13;17.23;;;8.45;;
53263;SDS011;39153;52.680;6.172;2024-03-22T13:34:39;25.02;;;12.77;;
53263;SDS011;39153;52.680;6.172;2024-03-22T13:37:04;24.55;;;12.85;;
53263;SDS011;39153;52.680;6.172;2024-03-22T13:39:31;24.23;;;9.73;;
53263;SDS011;39153;52.680;6.172;2024-03-22T13:41:57;29.65;;;10.38;;
53263;SDS011;39153;52.680;6.172;2024-03-22T13:44:23;24.42;;;10.15;;
53263;SDS011;39153;52.680;6.172;2024-03-22T13:46:52;25.10;;;10.25;;
53263;SDS011;39153;52.680;6.172;2024-03-22T13:49:19;27.27;;;10.50;;
53263;SDS011;39153;52.680;6.172;2024-03-22T13:51:48;23.77;;;9.98;;
53263;SDS011;39153;52.680;6.172;2024-03-22T13:54:14;24.08;;;9.07;;
53263;SDS011;39153;52.680;6.172;2024-03-22T13:56:40;22.67;;;11.25;;
53263;SDS011;39153;52.680;6.172;2024-03-22T13:59:06;23.30;;;7.93;;
53263;SDS011;39153;52.680;6.172;2024-03-22T14:01:33;21.80;;;8.27;;
53263;SDS011;39153;52.680;6.172;2024-03-22T14:04:03;20.77;;;8.30;;
53263;SDS011;39153;52.680;6.172;2024-03-22T14:06:32;20.30;;;8.90;;
53263;SDS011;39153;52.680;6.172;2024-03-22T14:08:58;23.58;;;7.63;;
53263;SDS011;39153;52.680;6.172;2024-03-22T14:11:28;22.13;;;6.07;;
53263;SDS011;39153;52.680;6.172;2024-03-22T14:13:55;17.25;;;6.95;;
53263;SDS011;39153;52.680;6.172;2024-03-22T14:16:24;22.05;;;6.82;;
53263;SDS011;39153;52.680;6.172;2024-03-22T14:18:50;21.55;;;7.00;;
53263;SDS011;39153;52.680;6.172;2024-03-22T14:21:17;24.30;;;5.88;;